Rayong, Thailand
Current Conditions -  °F | °C
As of 8:00 AM on Saturday 25 Oct 2014 (Local Time) from VTBU Reporting Station
Broken Clouds Broken Clouds  
Wind Chill: 81°   Ceiling: 30000
Heat Index: 87°   Visibility: 6mi
Dew Point: 77°   Wind: 2mph
Humidity: 89%   Direction: 350°N
Pressure: 29.85"   Gusts: NA
Location:  12.67°N, 101.28°E
Report Text: VTBU 250100Z 35002KT 9000 FEW018CB BKN300 27/25 Q1011 A2987 TS S LTG
Loading
Personal Weather Stations






























Interactive Weather Map
Tropical Storm Tracking
New forecast layout! Learn more

10-Day Weather Forecast

Advertisements
Track Severe Weather on mobile